Airfield :
LOGIN :

Register | Disclaimer

   EN    FR    IT 

 










Legend :    VFR   Marginal VFR   IFR   Intensive IFR   Very Intensive IFR
Visi :
Ceiling :
>= 8 km
>= 3000ft
5 to 8 km
1000 to 3000 ft
1500m to 5 km
500 to 1000 ft
800 to 1500m
200 to 500 ft
< 800m
< 200 ft
Symbols :   Thunderstorms  Fog  Heavy snow  Heavy precipitations  Wind > 20 kt
SIGMETs :     Misc.  Thunderstorms  Icing  Turbulence  Mountain Waves  Volcanic Ashes







- Airport Elevation : 235 ft
- IATA code : BZG


EPBY - Bydgoszcz

CURRENT METAR :
  • 182200Z 31011KT 9999 OVC009 20/18 Q1011

EXPIRED METARs :
  • 182130Z 32011KT 9999 OVC010 20/18 Q1011
  • 182100Z 31009KT 9999 OVC010 20/18 Q1011
  • 182030Z 31009KT 9999 OVC009 20/18 Q1011
  • 182000Z 32011KT 9999 OVC009 20/18 Q1011
  • 181930Z 32010KT 9999 OVC010 20/18 Q1011

TAF TAF EPBY
Valid from the 18 at 18:00 until the 19 at 18:00 UTC


181730Z 1818/1918 33010KT 9999 BKN016
TEMPO 1818/1824 4000 SHRA BKN014CB
PROB40
TEMPO 1818/1822 VRB18G28KT 1500 TSRA BKN007 BKN014CB
BECMG 1822/1824 BKN008
PROB40
TEMPO 1900/1906 3000 -RA BR BKN003
BECMG 1906/1908 SCT020
No reported NOTAMs for that airfield.



MET'MAP, your aeronautical weather chart ! - Copyright ORBIFLY December 2007 - Disclaimer

ORBIFLY MET'MAP TEAM :

Programming & Development : Alexandra Zaïnal
Concept & Development : Baudouin d'Aumeries
Co-Development & Prog : Marc-Olivier Méhu
Technical & hardware support : Manuel Goepfert

Contact : metmap@orbifly.com




SOURCES & CREDITS :

   NOAA